»·PEaware :: ASA180 KGEG-KSEA

ASA180 :: KGEG-KSEA

FLIGHT INFORMATION

Flight Status: Arrived
Operator:
Alaska Airlines
More flights by this operator :: More flights under this callsign
Pilot: Etienne B. (28927)
Aircraft: AIRBUS A320
(A320)
More flights by this aircraft type
Origin: KGEG Spokane Intl
United States
Destination: KSEA Seattle-Tacoma Intl
United States
More flights between these airports :: More routes between these airports
Route: +GEG6 TEMPL GLASR1
File this flight plan on PilotEdge
Remarks: RMK / SIMBRIEF
Altitude:
(Current/Filed)
28,000ft
Speed:
(Current/Filed)
426kts
Departed: 30-Apr-20 03:40 PM
Arrived: 30-Apr-20 04:30 PM
Distance/Time
Traveled:
193nm/0:50
Distance/Time
To Go:
Arrived

Flight Plot

Page will automatically refresh every two minutes.

Flight plan parsing failed; only flown route is shown


Map Options




Map Legend


Flown Route
Filed Route
Departure Airport
Arrival Airport
Navaid (VOR, NDB)
Fix

Horizontal Profiles

Position Reports

Time Latitude Longitude Heading Altitude Ground
Speed
30-Apr-20 15:18 47.623377 -117.539256 0 2367ft 0kts
30-Apr-20 15:19 47.623377 -117.539256 0 2367ft 0kts
30-Apr-20 15:20 47.623377 -117.539256 0 2367ft 0kts
30-Apr-20 15:21 47.623377 -117.539256 0 2367ft 0kts
30-Apr-20 15:22 47.623377 -117.539256 0 2367ft 0kts
30-Apr-20 15:23 47.623377 -117.539256 0 2367ft 0kts
30-Apr-20 15:24 47.623377 -117.539256 0 2367ft 0kts
30-Apr-20 15:25 47.623377 -117.539256 0 2367ft 0kts
30-Apr-20 15:26 47.623377 -117.539256 0 2367ft 0kts
30-Apr-20 15:27 47.623377 -117.539256 0 2367ft 0kts
30-Apr-20 15:28 47.623377 -117.539256 0 2367ft 0kts
30-Apr-20 15:29 47.623377 -117.539256 0 2367ft 0kts
30-Apr-20 15:30 47.623010 -117.539295 20 2367ft 2kts
30-Apr-20 15:31 47.622645 -117.539917 80 2368ft 2kts
30-Apr-20 15:32 47.622637 -117.540126 90 2368ft 0kts
30-Apr-20 15:33 47.622625 -117.539105 90 2366ft 7kts
30-Apr-20 15:34 47.622261 -117.535782 45 2365ft 12kts
30-Apr-20 15:35 47.626792 -117.528949 45 2353ft 29kts
30-Apr-20 15:36 47.631951 -117.521187 45 2334ft 0kts
30-Apr-20 15:37 47.631952 -117.521187 45 2334ft 0kts
30-Apr-20 15:38 47.632267 -117.520567 68 2332ft 11kts
30-Apr-20 15:39 47.626111 -117.525951 225 2352ft 111kts
30-Apr-20 15:40 47.593575 -117.575164 225 4057ft 198kts
30-Apr-20 15:41 47.549467 -117.646019 227 6243ft 260kts
30-Apr-20 15:42 47.500817 -117.728131 229 9361ft 269kts
30-Apr-20 15:43 47.491022 -117.836967 279 11429ft 316kts
30-Apr-20 15:44 47.511351 -117.971655 279 13434ft 344kts
30-Apr-20 15:45 47.532407 -118.111749 279 15702ft 353kts
30-Apr-20 15:46 47.553984 -118.255912 278 17721ft 363kts
30-Apr-20 15:47 47.575855 -118.403243 278 19519ft 372kts
30-Apr-20 15:48 47.598187 -118.555100 278 21133ft 381kts
30-Apr-20 15:49 47.620819 -118.710533 277 22651ft 389kts
30-Apr-20 15:50 47.643648 -118.868935 278 24106ft 395kts
30-Apr-20 15:51 47.666548 -119.029536 280 25372ft 402kts
30-Apr-20 15:52 47.689677 -119.193433 280 26509ft 409kts
30-Apr-20 15:53 47.712845 -119.359494 279 27774ft 410kts
30-Apr-20 15:54 47.733234 -119.525608 274 28013ft 406kts
30-Apr-20 15:55 47.746449 -119.692589 274 28015ft 408kts
30-Apr-20 15:56 47.759453 -119.859632 274 28025ft 407kts
30-Apr-20 15:57 47.772226 -120.026943 274 28039ft 407kts
30-Apr-20 15:58 47.784698 -120.193613 274 28030ft 406kts
30-Apr-20 15:59 47.796606 -120.356160 274 27650ft 376kts
30-Apr-20 16:00 47.807118 -120.502742 274 26761ft 341kts
30-Apr-20 16:01 47.816939 -120.641253 275 25019ft 333kts
30-Apr-20 16:02 47.826510 -120.778331 277 24033ft 344kts
30-Apr-20 16:03 47.836107 -120.919025 277 24023ft 339kts
30-Apr-20 16:04 47.845308 -121.056807 277 23169ft 328kts
30-Apr-20 16:05 47.854168 -121.191375 276 22112ft 318kts
30-Apr-20 16:06 47.862486 -121.320073 276 20594ft 309kts
30-Apr-20 16:07 47.870469 -121.445644 276 19098ft 301kts
30-Apr-20 16:08 47.878111 -121.567966 276 17596ft 295kts
30-Apr-20 16:09 47.883323 -121.687572 258 16181ft 290kts
30-Apr-20 16:10 47.828919 -121.782495 223 16008ft 315kts
30-Apr-20 16:11 47.763884 -121.869970 223 16013ft 315kts
30-Apr-20 16:12 47.712112 -121.967183 270 15888ft 299kts
30-Apr-20 16:13 47.729974 -122.075082 287 14624ft 259kts
30-Apr-20 16:15 47.752444 -122.172006 297 12915ft 249kts
30-Apr-20 16:16 47.784180 -122.265092 297 10531ft 265kts
30-Apr-20 16:17 47.766543 -122.349193 184 8432ft 264kts
30-Apr-20 16:18 47.719034 -122.283493 98 6439ft 262kts
30-Apr-20 16:19 47.718475 -122.185703 54 6020ft 243kts
30-Apr-20 16:20 47.776879 -122.172765 346 6010ft 234kts
30-Apr-20 16:21 47.827169 -122.215563 281 6010ft 229kts
30-Apr-20 16:22 47.813098 -122.297462 203 6010ft 233kts
30-Apr-20 16:23 47.751264 -122.305205 182 5813ft 216kts
30-Apr-20 16:24 47.693741 -122.305734 182 4988ft 212kts
30-Apr-20 16:25 47.637031 -122.306158 182 3786ft 194kts
30-Apr-20 16:26 47.587902 -122.306501 181 2689ft 161kts
30-Apr-20 16:27 47.548291 -122.306216 184 2068ft 130kts
30-Apr-20 16:28 47.510897 -122.307317 183 1414ft 137kts
30-Apr-20 16:29 47.473170 -122.307637 183 631ft 133kts
30-Apr-20 16:29 47.453169 -122.307828 171 423ft 29kts
30-Apr-20 16:31 47.451756 -122.306340 156 420ft 10kts
30-Apr-20 16:32 47.447662 -122.304868 98 401ft 8kts
30-Apr-20 16:32 47.447521 -122.302476 42 398ft 5kts

Navigation Log

Ident Type
Flight plan parsing failed, navigation log unavailable